Las Palmas de Gran Canaria, El Salvador

1:36 AM WEST on 五月 24, 2017 (GMT +0100)
Las Palmas de Gran Canaria

天気 に付いての歴史 GCLP - 四月, 2017

Change the Weather History Date:

金曜日, 四月 21, 2017

  Actual Average Record
Temperature  
平均温度 69 °F -  
最高温度 76 °F 71 °F 93 °F (2013)
最低温度 62 °F 61 °F 59 °F (2001)
Cooling Degree Days 4    
Growing Degree Days 19 (Base 50)    
Moisture  
露点温度 55 °F    
Average Humidity 58    
Maximum Humidity 73    
Minimum Humidity 39    
降水確率  
降水確率 0.00 インチ 0.00 インチ - ()
海面圧  
海面圧 30.02 インチ    
 
風速 12 Mph ()    
最大風速 26 Mph    
Max Gust Speed 23 Mph    
視程 7.0 マイル    
イベント      
Averages and records for this station are not official NWS values.
T = Trace of Precipitation, MM = Missing Value Source: Averaged Metar Reports

Daily Weather History Graph

Daily Weather History Graph

Search for Another Location

Airport or City:

Trip Planner

Search our weather history database for the weather conditions in past years. The results will help you decide how hot, cold, wet, or windy it might be!

Date:

天文

Apr. 21, 2017 入り
実時間 7:30 AM WEST 8:30 PM WEST
常用薄明 7:06 AM WEST 8:54 PM WEST
航海薄明 6:37 AM WEST 9:23 PM WEST
天文薄明 6:08 AM WEST 9:52 PM WEST
4:06 AM WEST (4/21) 3:32 PM WEST (4/21)
可視光の長さ 13h 48m
可照時間
12h 59m
二十六夜, 30% of the Moon is Illuminated
4月 21
二十六夜
4月 26
新しい
5月 3
上弦
5月 10
満月
5月 19
第 4 四半期

Hourly Weather History & Observations

時間 (WEST) 温度 露点温度 湿度 気圧 視程 Wind Dir 風速 突風の速度 Precip イベント 現在の気象状況
12:00 AM 67 °F 57 °F 63% 30.01 インチ - 6.9 Mph - -  
12:00 AM 68.0 °F 57.2 °F 68% 30.01 インチ 6.2 マイル 11.5 Mph - N/A   やや曇
12:30 AM 68.0 °F 57.2 °F 68% 30.01 インチ 6.2 マイル 8.1 Mph - N/A   やや曇
1:00 AM 66 °F 56 °F 62% 30.01 インチ 11 マイル 8.1 Mph - -   やや曇
1:00 AM 68.0 °F 55.4 °F 64% 30.01 インチ 6.2 マイル 13.8 Mph - N/A   所により曇
1:30 AM 68.0 °F 57.2 °F 68% 30.01 インチ 6.2 マイル 12.7 Mph - N/A   所により曇
2:00 AM 66 °F 57 °F 64% 30.00 インチ - 9.2 Mph - -  
2:00 AM 68.0 °F 57.2 °F 68% 29.98 インチ 6.2 マイル 12.7 Mph - N/A   やや曇
2:30 AM 66.2 °F 57.2 °F 73% 29.98 インチ 6.2 マイル 13.8 Mph - N/A   やや曇
3:00 AM 66 °F 55 °F 60% 29.99 インチ - 10.4 Mph - -  
3:00 AM 66.2 °F 55.4 °F 68% 29.98 インチ 6.2 マイル 13.8 Mph - N/A   やや曇
3:30 AM 66.2 °F 55.4 °F 68% 29.98 インチ 6.2 マイル 13.8 Mph - N/A   所により曇
4:00 AM 65 °F 54 °F 58% 29.97 インチ 11 マイル 11.5 Mph - -   やや曇
4:00 AM 66.2 °F 53.6 °F 64% 29.95 インチ 6.2 マイル 16.1 Mph - N/A   所により曇
4:30 AM 66.2 °F 55.4 °F 68% 29.98 インチ 6.2 マイル 11.5 Mph - N/A   所により曇
5:00 AM 64 °F 52 °F 57% 29.98 インチ - 北北西 6.9 Mph - -  
5:00 AM 64.4 °F 53.6 °F 68% 29.98 インチ 6.2 マイル 8.1 Mph - N/A   所により曇
5:30 AM 64.4 °F 53.6 °F 68% 29.98 インチ 6.2 マイル 8.1 Mph - N/A   所により曇
6:00 AM 63 °F 52 °F 58% 29.98 インチ - 北北西 6.9 Mph - -  
6:00 AM 64.4 °F 53.6 °F 68% 29.98 インチ 6.2 マイル 9.2 Mph - N/A   所により曇
6:30 AM 64.4 °F 51.8 °F 64% 29.98 インチ 6.2 マイル 5.8 Mph - N/A   所により曇
7:00 AM 64 °F 51 °F 52% 29.99 インチ 12 マイル 北北西 5.8 Mph - -   やや曇
7:00 AM 62.6 °F 51.8 °F 68% 29.98 インチ 6.2 マイル 北北西 3.5 Mph - N/A   所により曇
7:30 AM 64.4 °F 51.8 °F 64% 29.98 インチ 6.2 マイル 6.9 Mph - N/A   所により曇
8:00 AM 64 °F 51 °F 53% 30.01 インチ - 4.6 Mph - -  
8:00 AM 64.4 °F 53.6 °F 68% 30.01 インチ 6.2 マイル 9.2 Mph - N/A   所により曇
8:30 AM 66.2 °F 53.6 °F 64% 30.01 インチ 6.2 マイル 10.4 Mph - N/A   所により曇
9:00 AM 69 °F 53 °F 46% 30.02 インチ - 10.4 Mph - -  
9:00 AM 69.8 °F 55.4 °F 60% 30.01 インチ 6.2 マイル 12.7 Mph - N/A   所により曇
9:30 AM 69.8 °F 51.8 °F 53% 30.01 インチ 6.2 マイル 16.1 Mph - N/A   所により曇
10:00 AM 72 °F 53 °F 40% 30.04 インチ 12 マイル 北北西 9.2 Mph - -   やや曇
10:00 AM 71.6 °F 53.6 °F 53% 30.04 インチ 6.2 マイル 15.0 Mph - N/A   所により曇
10:30 AM 73.4 °F 55.4 °F 53% 30.04 インチ 6.2 マイル 北北西 13.8 Mph - N/A   所により曇
11:00 AM 74 °F 54 °F 39% 30.04 インチ - 13.8 Mph - -  
11:00 AM 73.4 °F 53.6 °F 50% 30.04 インチ 6.2 マイル 17.3 Mph - N/A   所により曇
11:30 AM 73.4 °F 59.0 °F 61% 30.04 インチ 6.2 マイル 北北東 21.9 Mph - N/A   所により曇
12:00 PM 74 °F 58 °F 47% 30.05 インチ - 北北東 24.2 Mph - -  
12:00 PM 73.4 °F 59.0 °F 61% 30.04 インチ 6.2 マイル 北北東 23.0 Mph - N/A   所により曇
12:30 PM 75.2 °F 59.0 °F 57% 30.04 インチ 6.2 マイル 北北東 24.2 Mph - N/A   所により曇
1:00 PM 75 °F 55 °F 39% 30.04 インチ 12 マイル 北北東 24.2 Mph - -   やや曇
1:00 PM 75.2 °F 55.4 °F 50% 30.04 インチ 6.2 マイル 北北東 26.5 Mph - N/A   所により曇
1:30 PM 75.2 °F 57.2 °F 53% 30.04 インチ 6.2 マイル 北北東 26.5 Mph - N/A   所により曇
2:00 PM 73 °F 54 °F 41% 30.04 インチ - 北北東 23.0 Mph - -  
2:00 PM 75.2 °F 55.4 °F 50% 30.04 インチ 6.2 マイル 北北東 25.3 Mph - N/A   所により曇
2:30 PM 75.2 °F 55.4 °F 50% 30.04 インチ 6.2 マイル 北北東 25.3 Mph - N/A   所により曇
3:00 PM 73 °F 55 °F 44% 30.03 インチ - 北北東 23.0 Mph - -  
3:00 PM 73.4 °F 55.4 °F 53% 30.01 インチ 6.2 マイル 北北東 24.2 Mph - N/A   やや曇
3:30 PM 73.4 °F 57.2 °F 57% 30.01 インチ 6.2 マイル 北東 21.9 Mph - N/A   だいたい曇
4:00 PM 72 °F 55 °F 44% 30.04 インチ 12 マイル 北北東 11.5 Mph - -   だいたい曇
4:00 PM 73.4 °F 55.4 °F 53% 30.04 インチ 6.2 マイル 北東 20.7 Mph - N/A   だいたい曇
4:30 PM 73.4 °F 55.4 °F 53% 30.04 インチ 6.2 マイル 11.5 Mph - N/A   だいたい曇
5:00 PM 71 °F 55 °F 48% 30.03 インチ - 南東 6.9 Mph - -  
5:00 PM 71.6 °F 55.4 °F 57% 30.04 インチ 6.2 マイル 20.7 Mph - N/A   だいたい曇
5:30 PM 71.6 °F 55.4 °F 57% 30.01 インチ 6.2 マイル 変数 5.8 Mph - N/A   だいたい曇
6:00 PM 72 °F 55 °F 44% 30.03 インチ - 北東 3.5 Mph - -  
6:00 PM 71.6 °F 55.4 °F 57% 30.01 インチ 6.2 マイル 9.2 Mph 23.0 Mph N/A   だいたい曇
6:30 PM 71.6 °F 57.2 °F 60% 30.01 インチ 6.2 マイル 北北東 24.2 Mph - N/A   やや曇
7:00 PM 70 °F 56 °F 53% 30.03 インチ 12 マイル 北北東 19.6 Mph - -   やや曇
7:00 PM 69.8 °F 57.2 °F 64% 30.01 インチ 6.2 マイル 北北東 23.0 Mph - N/A   所により曇
7:30 PM 69.8 °F 57.2 °F 64% 30.01 インチ 6.2 マイル 北北東 20.7 Mph - N/A   所により曇
8:00 PM 69 °F 55 °F 51% 30.04 インチ - 15.0 Mph - -  
8:30 PM 68.0 °F 55.4 °F 64% 30.04 インチ 6.2 マイル 北北東 19.6 Mph - N/A   所により曇
9:00 PM 67 °F 56 °F 58% 30.06 インチ - 12.7 Mph - -  
9:00 PM 68.0 °F 55.4 °F 64% 30.04 インチ 6.2 マイル 北北東 16.1 Mph - N/A   所により曇
9:30 PM 68.0 °F 55.4 °F 64% 30.06 インチ 6.2 マイル 13.8 Mph - N/A   所により曇
10:00 PM 67 °F 55 °F 56% 30.08 インチ 12 マイル 9.2 Mph - -   やや曇
10:00 PM 68.0 °F 55.4 °F 64% 30.06 インチ 6.2 マイル 13.8 Mph - N/A   所により曇
10:30 PM 68.0 °F 55.4 °F 64% 30.06 インチ 6.2 マイル 10.4 Mph - N/A   所により曇
11:00 PM 66 °F 53 °F 53% 30.09 インチ - 9.2 Mph - -  
11:00 PM 68.0 °F 55.4 °F 64% 30.09 インチ 6.2 マイル 12.7 Mph - N/A   所により曇
11:30 PM 68.0 °F 55.4 °F 64% 30.09 インチ 6.2 マイル 12.7 Mph - N/A   だいたい曇